sensor_id;sensor_type;location;lat;lon;timestamp;pressure;altitude;pressure_sealevel;temperature;humidity
59951;BME280;45812;53.540;9.774;2023-02-04T00:00:44;102810.25;;;3.33;100.00
59951;BME280;45812;53.540;9.774;2023-02-04T00:03:10;102807.03;;;3.27;100.00
59951;BME280;45812;53.540;9.774;2023-02-04T00:05:36;102818.69;;;3.21;100.00
59951;BME280;45812;53.540;9.774;2023-02-04T00:08:02;102821.63;;;3.14;100.00
59951;BME280;45812;53.540;9.774;2023-02-04T00:10:27;102821.69;;;3.12;100.00
59951;BME280;45812;53.540;9.774;2023-02-04T00:12:52;102830.53;;;3.11;100.00
59951;BME280;45812;53.540;9.774;2023-02-04T00:15:17;102833.41;;;3.05;100.00
59951;BME280;45812;53.540;9.774;2023-02-04T00:17:43;102834.34;;;3.04;100.00
59951;BME280;45812;53.540;9.774;2023-02-04T00:20:08;102846.66;;;3.03;100.00
59951;BME280;45812;53.540;9.774;2023-02-04T00:22:34;102851.91;;;3.03;100.00
59951;BME280;45812;53.540;9.774;2023-02-04T00:24:59;102864.84;;;3.08;100.00
59951;BME280;45812;53.540;9.774;2023-02-04T00:27:24;102870.59;;;3.18;100.00
59951;BME280;45812;53.540;9.774;2023-02-04T00:29:49;102872.50;;;3.34;100.00
59951;BME280;45812;53.540;9.774;2023-02-04T00:32:15;102878.97;;;3.48;100.00
59951;BME280;45812;53.540;9.774;2023-02-04T00:34:40;102879.28;;;3.60;100.00
59951;BME280;45812;53.540;9.774;2023-02-04T00:37:05;102896.53;;;3.68;100.00
59951;BME280;45812;53.540;9.774;2023-02-04T00:39:31;102903.13;;;3.78;100.00
59951;BME280;45812;53.540;9.774;2023-02-04T00:41:56;102913.84;;;3.93;100.00
59951;BME280;45812;53.540;9.774;2023-02-04T00:44:21;102921.28;;;3.63;100.00
59951;BME280;45812;53.540;9.774;2023-02-04T00:46:46;102929.25;;;3.62;100.00
59951;BME280;45812;53.540;9.774;2023-02-04T00:49:12;102917.81;;;3.63;100.00
59951;BME280;45812;53.540;9.774;2023-02-04T00:51:38;102924.78;;;3.64;100.00
59951;BME280;45812;53.540;9.774;2023-02-04T00:54:05;102923.66;;;3.49;100.00
59951;BME280;45812;53.540;9.774;2023-02-04T00:56:30;102927.91;;;3.31;100.00
59951;BME280;45812;53.540;9.774;2023-02-04T00:58:56;102930.75;;;3.05;100.00
59951;BME280;45812;53.540;9.774;2023-02-04T01:01:21;102943.91;;;2.83;100.00
59951;BME280;45812;53.540;9.774;2023-02-04T01:03:46;102953.06;;;2.73;100.00
59951;BME280;45812;53.540;9.774;2023-02-04T01:06:11;102955.34;;;3.26;100.00
59951;BME280;45812;53.540;9.774;2023-02-04T01:08:37;102957.78;;;3.30;100.00
59951;BME280;45812;53.540;9.774;2023-02-04T01:11:02;102965.81;;;3.27;100.00
59951;BME280;45812;53.540;9.774;2023-02-04T01:13:27;102981.00;;;3.21;100.00
59951;BME280;45812;53.540;9.774;2023-02-04T01:15:53;102989.25;;;3.12;100.00
59951;BME280;45812;53.540;9.774;2023-02-04T01:18:18;102993.97;;;3.03;100.00
59951;BME280;45812;53.540;9.774;2023-02-04T01:20:43;102996.72;;;3.00;100.00
59951;BME280;45812;53.540;9.774;2023-02-04T01:23:08;103008.38;;;2.93;100.00
59951;BME280;45812;53.540;9.774;2023-02-04T01:25:35;103013.78;;;2.90;100.00
59951;BME280;45812;53.540;9.774;2023-02-04T01:28:00;103012.06;;;2.89;100.00
59951;BME280;45812;53.540;9.774;2023-02-04T01:30:25;103015.72;;;2.85;100.00
59951;BME280;45812;53.540;9.774;2023-02-04T01:32:50;103026.53;;;2.78;100.00
59951;BME280;45812;53.540;9.774;2023-02-04T01:35:16;103023.16;;;2.74;100.00
59951;BME280;45812;53.540;9.774;2023-02-04T01:37:41;103033.00;;;2.69;100.00
59951;BME280;45812;53.540;9.774;2023-02-04T01:40:07;103031.34;;;2.66;100.00
59951;BME280;45812;53.540;9.774;2023-02-04T01:42:33;103039.28;;;2.65;100.00
59951;BME280;45812;53.540;9.774;2023-02-04T01:44:58;103046.44;;;2.61;100.00
59951;BME280;45812;53.540;9.774;2023-02-04T01:47:23;103039.63;;;2.56;100.00
59951;BME280;45812;53.540;9.774;2023-02-04T01:49:51;103046.75;;;2.52;100.00
59951;BME280;45812;53.540;9.774;2023-02-04T01:52:18;103049.56;;;2.48;100.00
59951;BME280;45812;53.540;9.774;2023-02-04T01:54:44;103057.66;;;2.41;100.00
59951;BME280;45812;53.540;9.774;2023-02-04T01:57:12;103055.13;;;2.38;100.00
59951;BME280;45812;53.540;9.774;2023-02-04T01:59:39;103068.50;;;2.32;100.00
59951;BME280;45812;53.540;9.774;2023-02-04T02:05:13;103073.22;;;2.48;100.00
59951;BME280;45812;53.540;9.774;2023-02-04T02:07:39;103083.94;;;2.66;100.00
59951;BME280;45812;53.540;9.774;2023-02-04T02:10:05;103077.69;;;2.69;100.00
59951;BME280;45812;53.540;9.774;2023-02-04T02:12:32;103087.69;;;2.59;100.00
59951;BME280;45812;53.540;9.774;2023-02-04T02:14:58;103088.88;;;2.51;100.00
59951;BME280;45812;53.540;9.774;2023-02-04T02:17:24;103084.91;;;2.39;100.00
59951;BME280;45812;53.540;9.774;2023-02-04T02:19:49;103096.66;;;2.29;100.00
59951;BME280;45812;53.540;9.774;2023-02-04T02:22:28;103103.03;;;2.22;100.00
59951;BME280;45812;53.540;9.774;2023-02-04T02:24:56;103110.28;;;2.15;100.00
59951;BME280;45812;53.540;9.774;2023-02-04T02:27:22;103115.63;;;2.12;100.00
59951;BME280;45812;53.540;9.774;2023-02-04T02:29:47;103127.16;;;2.08;100.00
59951;BME280;45812;53.540;9.774;2023-02-04T02:32:13;103131.44;;;2.10;100.00
59951;BME280;45812;53.540;9.774;2023-02-04T02:34:40;103136.53;;;2.15;100.00
59951;BME280;45812;53.540;9.774;2023-02-04T02:37:06;103143.34;;;2.21;100.00
59951;BME280;45812;53.540;9.774;2023-02-04T02:39:38;103155.44;;;2.26;100.00
59951;BME280;45812;53.540;9.774;2023-02-04T02:42:05;103160.44;;;2.34;100.00
59951;BME280;45812;53.540;9.774;2023-02-04T02:44:31;103167.00;;;2.47;100.00
59951;BME280;45812;53.540;9.774;2023-02-04T02:46:57;103170.81;;;2.63;100.00
59951;BME280;45812;53.540;9.774;2023-02-04T02:49:22;103176.47;;;2.26;100.00
59951;BME280;45812;53.540;9.774;2023-02-04T02:51:48;103173.94;;;2.23;100.00
59951;BME280;45812;53.540;9.774;2023-02-04T02:54:20;103179.00;;;2.29;100.00
59951;BME280;45812;53.540;9.774;2023-02-04T02:56:46;103180.44;;;2.38;100.00
59951;BME280;45812;53.540;9.774;2023-02-04T02:59:12;103186.25;;;2.48;100.00
59951;BME280;45812;53.540;9.774;2023-02-04T03:01:38;103195.28;;;2.65;100.00
59951;BME280;45812;53.540;9.774;2023-02-04T03:04:03;103196.72;;;2.74;100.00
59951;BME280;45812;53.540;9.774;2023-02-04T03:06:29;103200.59;;;2.89;100.00
59951;BME280;45812;53.540;9.774;2023-02-04T03:08:55;103204.78;;;2.94;100.00
59951;BME280;45812;53.540;9.774;2023-02-04T03:11:21;103201.03;;;3.01;100.00
59951;BME280;45812;53.540;9.774;2023-02-04T03:13:48;103216.59;;;3.08;100.00
59951;BME280;45812;53.540;9.774;2023-02-04T03:16:14;103212.66;;;2.94;100.00
59951;BME280;45812;53.540;9.774;2023-02-04T03:18:40;103216.22;;;2.68;100.00
59951;BME280;45812;53.540;9.774;2023-02-04T03:21:05;103226.78;;;2.40;100.00
59951;BME280;45812;53.540;9.774;2023-02-04T03:23:32;103235.38;;;2.19;100.00
59951;BME280;45812;53.540;9.774;2023-02-04T03:25:58;103234.84;;;2.62;100.00
59951;BME280;45812;53.540;9.774;2023-02-04T03:28:23;103242.66;;;2.64;100.00
59951;BME280;45812;53.540;9.774;2023-02-04T03:30:49;103247.19;;;2.59;100.00
59951;BME280;45812;53.540;9.774;2023-02-04T03:33:21;103261.59;;;2.49;100.00
59951;BME280;45812;53.540;9.774;2023-02-04T03:35:46;103266.22;;;2.40;100.00
59951;BME280;45812;53.540;9.774;2023-02-04T03:38:11;103269.97;;;2.33;100.00
59951;BME280;45812;53.540;9.774;2023-02-04T03:40:37;103280.78;;;2.24;100.00
59951;BME280;45812;53.540;9.774;2023-02-04T03:43:02;103288.22;;;2.10;100.00
59951;BME280;45812;53.540;9.774;2023-02-04T03:45:27;103294.59;;;2.01;100.00
59951;BME280;45812;53.540;9.774;2023-02-04T03:47:52;103296.59;;;1.93;100.00
59951;BME280;45812;53.540;9.774;2023-02-04T03:50:18;103299.50;;;1.84;100.00
59951;BME280;45812;53.540;9.774;2023-02-04T03:52:43;103304.94;;;1.78;100.00
59951;BME280;45812;53.540;9.774;2023-02-04T03:55:09;103302.59;;;1.67;100.00
59951;BME280;45812;53.540;9.774;2023-02-04T03:57:34;103305.97;;;1.72;100.00
59951;BME280;45812;53.540;9.774;2023-02-04T03:59:59;103304.38;;;1.67;100.00
59951;BME280;45812;53.540;9.774;2023-02-04T04:02:25;103313.28;;;1.61;100.00
59951;BME280;45812;53.540;9.774;2023-02-04T04:04:50;103318.63;;;1.58;100.00
59951;BME280;45812;53.540;9.774;2023-02-04T04:07:15;103318.75;;;1.54;100.00
59951;BME280;45812;53.540;9.774;2023-02-04T04:09:40;103325.03;;;1.48;100.00
59951;BME280;45812;53.540;9.774;2023-02-04T04:12:06;103328.56;;;1.47;100.00
59951;BME280;45812;53.540;9.774;2023-02-04T04:14:31;103325.19;;;1.42;100.00
59951;BME280;45812;53.540;9.774;2023-02-04T04:16:56;103325.19;;;1.42;100.00
59951;BME280;45812;53.540;9.774;2023-02-04T04:19:21;103334.94;;;1.38;100.00
59951;BME280;45812;53.540;9.774;2023-02-04T04:21:48;103335.50;;;1.49;100.00
59951;BME280;45812;53.540;9.774;2023-02-04T04:24:14;103344.41;;;1.75;100.00
59951;BME280;45812;53.540;9.774;2023-02-04T04:26:39;103358.38;;;2.06;100.00
59951;BME280;45812;53.540;9.774;2023-02-04T04:29:04;103355.97;;;2.28;100.00
59951;BME280;45812;53.540;9.774;2023-02-04T04:31:29;103358.94;;;2.46;100.00
59951;BME280;45812;53.540;9.774;2023-02-04T04:33:54;103361.06;;;2.62;100.00
59951;BME280;45812;53.540;9.774;2023-02-04T04:36:20;103364.13;;;2.75;100.00
59951;BME280;45812;53.540;9.774;2023-02-04T04:38:45;103352.13;;;2.38;100.00
59951;BME280;45812;53.540;9.774;2023-02-04T04:41:10;103363.63;;;2.36;100.00
59951;BME280;45812;53.540;9.774;2023-02-04T04:43:35;103370.63;;;2.35;100.00
59951;BME280;45812;53.540;9.774;2023-02-04T04:46:01;103371.34;;;2.42;100.00
59951;BME280;45812;53.540;9.774;2023-02-04T04:48:26;103374.63;;;2.49;100.00
59951;BME280;45812;53.540;9.774;2023-02-04T04:50:51;103379.63;;;2.56;100.00
59951;BME280;45812;53.540;9.774;2023-02-04T04:53:16;103388.22;;;2.63;100.00
59951;BME280;45812;53.540;9.774;2023-02-04T04:55:42;103381.94;;;2.67;100.00
59951;BME280;45812;53.540;9.774;2023-02-04T04:58:07;103390.72;;;2.66;100.00
59951;BME280;45812;53.540;9.774;2023-02-04T05:00:33;103392.56;;;2.64;100.00
59951;BME280;45812;53.540;9.774;2023-02-04T05:02:58;103398.69;;;2.64;100.00
59951;BME280;45812;53.540;9.774;2023-02-04T05:05:23;103414.31;;;2.69;100.00
59951;BME280;45812;53.540;9.774;2023-02-04T05:07:49;103418.41;;;2.78;100.00
59951;BME280;45812;53.540;9.774;2023-02-04T05:10:14;103418.41;;;2.78;100.00
59951;BME280;45812;53.540;9.774;2023-02-04T05:12:40;103429.59;;;2.84;100.00
59951;BME280;45812;53.540;9.774;2023-02-04T05:15:05;103436.50;;;2.88;100.00
59951;BME280;45812;53.540;9.774;2023-02-04T05:17:31;103445.03;;;2.95;100.00
59951;BME280;45812;53.540;9.774;2023-02-04T05:19:56;103450.25;;;2.96;100.00
59951;BME280;45812;53.540;9.774;2023-02-04T05:22:21;103454.56;;;2.99;100.00
59951;BME280;45812;53.540;9.774;2023-02-04T05:24:46;103452.66;;;3.04;100.00
59951;BME280;45812;53.540;9.774;2023-02-04T05:27:12;103451.69;;;3.07;100.00
59951;BME280;45812;53.540;9.774;2023-02-04T05:29:37;103458.69;;;3.08;100.00
59951;BME280;45812;53.540;9.774;2023-02-04T05:32:02;103454.28;;;3.08;100.00
59951;BME280;45812;53.540;9.774;2023-02-04T05:34:27;103460.50;;;3.06;100.00
59951;BME280;45812;53.540;9.774;2023-02-04T05:36:53;103464.91;;;3.05;100.00
59951;BME280;45812;53.540;9.774;2023-02-04T05:39:18;103478.75;;;3.10;100.00
59951;BME280;45812;53.540;9.774;2023-02-04T05:41:43;103479.63;;;3.11;100.00
59951;BME280;45812;53.540;9.774;2023-02-04T05:44:08;103479.44;;;3.17;100.00
59951;BME280;45812;53.540;9.774;2023-02-04T05:46:34;103482.09;;;3.15;100.00
59951;BME280;45812;53.540;9.774;2023-02-04T05:49:00;103487.94;;;3.25;100.00
59951;BME280;45812;53.540;9.774;2023-02-04T05:51:25;103488.84;;;3.24;100.00
59951;BME280;45812;53.540;9.774;2023-02-04T05:53:50;103497.50;;;3.27;100.00
59951;BME280;45812;53.540;9.774;2023-02-04T05:56:16;103498.38;;;3.28;100.00
59951;BME280;45812;53.540;9.774;2023-02-04T05:58:42;103501.88;;;3.28;100.00
59951;BME280;45812;53.540;9.774;2023-02-04T06:01:07;103506.28;;;3.28;100.00
59951;BME280;45812;53.540;9.774;2023-02-04T06:03:32;103500.56;;;3.14;100.00
59951;BME280;45812;53.540;9.774;2023-02-04T06:05:57;103501.25;;;2.92;100.00
59951;BME280;45812;53.540;9.774;2023-02-04T06:08:23;103508.78;;;3.31;100.00
59951;BME280;45812;53.540;9.774;2023-02-04T06:10:48;103510.81;;;3.23;100.00
59951;BME280;45812;53.540;9.774;2023-02-04T06:13:13;103506.25;;;3.01;100.00
59951;BME280;45812;53.540;9.774;2023-02-04T06:15:39;103512.06;;;2.83;100.00
59951;BME280;45812;53.540;9.774;2023-02-04T06:18:04;103516.97;;;2.66;100.00
59951;BME280;45812;53.540;9.774;2023-02-04T06:20:29;103527.00;;;2.52;100.00
59951;BME280;45812;53.540;9.774;2023-02-04T06:22:55;103532.59;;;2.39;100.00
59951;BME280;45812;53.540;9.774;2023-02-04T06:25:20;103537.28;;;2.30;100.00
59951;BME280;45812;53.540;9.774;2023-02-04T06:27:46;103549.72;;;2.22;100.00
59951;BME280;45812;53.540;9.774;2023-02-04T06:30:11;103546.41;;;2.15;100.00
59951;BME280;45812;53.540;9.774;2023-02-04T06:32:37;103549.22;;;2.09;100.00
59951;BME280;45812;53.540;9.774;2023-02-04T06:35:02;103542.34;;;2.05;100.00
59951;BME280;45812;53.540;9.774;2023-02-04T06:37:27;103552.91;;;2.02;100.00
59951;BME280;45812;53.540;9.774;2023-02-04T06:39:53;103560.84;;;1.99;100.00
59951;BME280;45812;53.540;9.774;2023-02-04T06:42:19;103563.44;;;2.00;100.00
59951;BME280;45812;53.540;9.774;2023-02-04T06:44:44;103565.13;;;2.03;100.00
59951;BME280;45812;53.540;9.774;2023-02-04T06:47:09;103571.16;;;2.08;100.00
59951;BME280;45812;53.540;9.774;2023-02-04T06:49:35;103573.53;;;2.17;100.00
59951;BME280;45812;53.540;9.774;2023-02-04T06:52:00;103585.53;;;2.27;100.00
59951;BME280;45812;53.540;9.774;2023-02-04T06:54:25;103582.59;;;2.38;100.00
59951;BME280;45812;53.540;9.774;2023-02-04T06:56:50;103585.03;;;2.46;100.00
59951;BME280;45812;53.540;9.774;2023-02-04T06:59:16;103586.63;;;2.51;100.00
59951;BME280;45812;53.540;9.774;2023-02-04T07:01:41;103598.84;;;2.52;100.00
59951;BME280;45812;53.540;9.774;2023-02-04T07:04:06;103598.00;;;2.52;100.00
59951;BME280;45812;53.540;9.774;2023-02-04T07:06:31;103601.41;;;2.55;100.00
59951;BME280;45812;53.540;9.774;2023-02-04T07:08:57;103605.69;;;2.58;100.00
59951;BME280;45812;53.540;9.774;2023-02-04T07:11:22;103612.63;;;2.62;100.00
59951;BME280;45812;53.540;9.774;2023-02-04T07:13:47;103620.38;;;2.66;100.00
59951;BME280;45812;53.540;9.774;2023-02-04T07:16:13;103622.06;;;2.69;100.00
59951;BME280;45812;53.540;9.774;2023-02-04T07:18:38;103627.13;;;2.75;100.00
59951;BME280;45812;53.540;9.774;2023-02-04T07:21:04;103636.72;;;2.78;100.00
59951;BME280;45812;53.540;9.774;2023-02-04T07:23:29;103639.25;;;2.82;100.00
59951;BME280;45812;53.540;9.774;2023-02-04T07:25:54;103638.31;;;2.83;100.00
59951;BME280;45812;53.540;9.774;2023-02-04T07:28:23;103640.91;;;2.85;100.00
59951;BME280;45812;53.540;9.774;2023-02-04T07:30:49;103633.03;;;2.85;100.00
59951;BME280;45812;53.540;9.774;2023-02-04T07:33:14;103647.09;;;2.84;100.00
59951;BME280;45812;53.540;9.774;2023-02-04T07:35:39;103649.72;;;2.84;100.00
59951;BME280;45812;53.540;9.774;2023-02-04T07:38:04;103642.63;;;2.86;100.00
59951;BME280;45812;53.540;9.774;2023-02-04T07:40:30;103642.53;;;2.89;100.00
59951;BME280;45812;53.540;9.774;2023-02-04T07:42:55;103644.03;;;2.97;100.00
59951;BME280;45812;53.540;9.774;2023-02-04T07:45:21;103650.72;;;3.09;100.00
59951;BME280;45812;53.540;9.774;2023-02-04T07:47:46;103658.13;;;3.26;100.00
59951;BME280;45812;53.540;9.774;2023-02-04T07:50:11;103657.78;;;3.38;100.00
59951;BME280;45812;53.540;9.774;2023-02-04T07:52:37;103667.00;;;3.51;100.00
59951;BME280;45812;53.540;9.774;2023-02-04T07:55:03;103674.66;;;3.60;100.00
59951;BME280;45812;53.540;9.774;2023-02-04T07:57:28;103675.31;;;3.67;100.00
59951;BME280;45812;53.540;9.774;2023-02-04T07:59:54;103668.91;;;3.76;100.00
59951;BME280;45812;53.540;9.774;2023-02-04T08:02:19;103675.53;;;3.87;100.00
59951;BME280;45812;53.540;9.774;2023-02-04T08:04:44;103675.16;;;4.00;100.00
59951;BME280;45812;53.540;9.774;2023-02-04T08:07:10;103681.81;;;4.11;100.00
59951;BME280;45812;53.540;9.774;2023-02-04T08:09:35;103672.63;;;4.23;100.00
59951;BME280;45812;53.540;9.774;2023-02-04T08:12:00;103673.38;;;4.26;100.00
59951;BME280;45812;53.540;9.774;2023-02-04T08:14:26;103673.88;;;3.85;100.00
59951;BME280;45812;53.540;9.774;2023-02-04T08:16:51;103683.25;;;3.65;100.00
59951;BME280;45812;53.540;9.774;2023-02-04T08:19:16;103689.78;;;3.54;100.00
59951;BME280;45812;53.540;9.774;2023-02-04T08:21:44;103691.78;;;3.46;100.00
59951;BME280;45812;53.540;9.774;2023-02-04T08:24:13;103688.38;;;3.42;100.00
59951;BME280;45812;53.540;9.774;2023-02-04T08:26:40;103696.47;;;3.34;100.00
59951;BME280;45812;53.540;9.774;2023-02-04T08:29:06;103703.56;;;3.32;100.00
59951;BME280;45812;53.540;9.774;2023-02-04T08:31:32;103698.22;;;3.93;100.00
59951;BME280;45812;53.540;9.774;2023-02-04T08:33:57;103705.53;;;4.11;100.00
59951;BME280;45812;53.540;9.774;2023-02-04T08:36:22;103706.03;;;4.22;99.01
59951;BME280;45812;53.540;9.774;2023-02-04T08:38:47;103703.28;;;4.25;98.49
59951;BME280;45812;53.540;9.774;2023-02-04T08:41:13;103707.34;;;4.36;97.95
59951;BME280;45812;53.540;9.774;2023-02-04T08:43:38;103704.31;;;4.48;97.30
59951;BME280;45812;53.540;9.774;2023-02-04T08:46:03;103706.75;;;4.79;96.49
59951;BME280;45812;53.540;9.774;2023-02-04T08:48:29;103722.75;;;4.74;98.98
59951;BME280;45812;53.540;9.774;2023-02-04T08:50:54;103719.13;;;5.02;100.00
59951;BME280;45812;53.540;9.774;2023-02-04T08:53:19;103711.91;;;5.30;100.00
59951;BME280;45812;53.540;9.774;2023-02-04T08:55:45;103714.88;;;5.91;97.13
59951;BME280;45812;53.540;9.774;2023-02-04T08:58:10;103724.06;;;6.47;93.87
59951;BME280;45812;53.540;9.774;2023-02-04T09:00:35;103719.84;;;6.83;91.58
59951;BME280;45812;53.540;9.774;2023-02-04T09:03:01;103730.34;;;7.44;88.20
59951;BME280;45812;53.540;9.774;2023-02-04T09:05:26;103729.50;;;7.99;81.88
59951;BME280;45812;53.540;9.774;2023-02-04T09:07:51;103736.97;;;8.45;79.74
59951;BME280;45812;53.540;9.774;2023-02-04T09:10:16;103726.97;;;9.51;73.17
59951;BME280;45812;53.540;9.774;2023-02-04T09:12:42;103722.97;;;10.67;63.89
59951;BME280;45812;53.540;9.774;2023-02-04T09:15:09;103728.75;;;11.18;60.27
59951;BME280;45812;53.540;9.774;2023-02-04T09:17:34;103729.88;;;11.42;58.06
59951;BME280;45812;53.540;9.774;2023-02-04T09:20:00;103723.09;;;12.06;55.15
59951;BME280;45812;53.540;9.774;2023-02-04T09:22:25;103728.72;;;12.81;52.10
59951;BME280;45812;53.540;9.774;2023-02-04T09:24:51;103739.78;;;13.27;50.17
59951;BME280;45812;53.540;9.774;2023-02-04T09:27:16;103742.25;;;13.67;48.92
59951;BME280;45812;53.540;9.774;2023-02-04T09:29:41;103740.22;;;14.42;46.37
59951;BME280;45812;53.540;9.774;2023-02-04T09:32:06;103742.63;;;15.27;44.00
59951;BME280;45812;53.540;9.774;2023-02-04T09:34:32;103742.03;;;16.11;41.95
59951;BME280;45812;53.540;9.774;2023-02-04T09:36:57;103749.94;;;16.24;41.44
59951;BME280;45812;53.540;9.774;2023-02-04T09:39:22;103749.09;;;16.12;40.72
59951;BME280;45812;53.540;9.774;2023-02-04T09:41:48;103749.13;;;16.65;39.11
59951;BME280;45812;53.540;9.774;2023-02-04T09:44:18;103754.66;;;17.36;38.13
59951;BME280;45812;53.540;9.774;2023-02-04T09:46:47;103754.16;;;18.21;36.35
59951;BME280;45812;53.540;9.774;2023-02-04T09:49:13;103751.59;;;18.38;35.47
59951;BME280;45812;53.540;9.774;2023-02-04T09:51:40;103749.16;;;19.30;33.97
59951;BME280;45812;53.540;9.774;2023-02-04T09:54:08;103757.25;;;20.13;32.33
59951;BME280;45812;53.540;9.774;2023-02-04T09:56:35;103761.03;;;20.38;31.40
59951;BME280;45812;53.540;9.774;2023-02-04T09:59:03;103758.13;;;20.31;31.41
59951;BME280;45812;53.540;9.774;2023-02-04T10:01:28;103756.59;;;19.83;31.43
59951;BME280;45812;53.540;9.774;2023-02-04T10:03:58;103765.13;;;19.51;32.38
59951;BME280;45812;53.540;9.774;2023-02-04T10:06:24;103759.88;;;19.59;31.89
59951;BME280;45812;53.540;9.774;2023-02-04T10:08:50;103761.13;;;20.28;30.37
59951;BME280;45812;53.540;9.774;2023-02-04T10:11:17;103769.41;;;21.14;28.99
59951;BME280;45812;53.540;9.774;2023-02-04T10:13:46;103768.22;;;21.85;27.89
59951;BME280;45812;53.540;9.774;2023-02-04T10:16:22;103773.78;;;22.33;27.68
59951;BME280;45812;53.540;9.774;2023-02-04T10:18:53;103778.28;;;23.70;25.55
59951;BME280;45812;53.540;9.774;2023-02-04T10:21:25;103782.78;;;25.15;24.08
59951;BME280;45812;53.540;9.774;2023-02-04T10:23:53;103784.50;;;25.30;23.22
59951;BME280;45812;53.540;9.774;2023-02-04T10:26:19;103787.69;;;25.49;23.34
59951;BME280;45812;53.540;9.774;2023-02-04T10:28:45;103781.47;;;25.25;23.52
59951;BME280;45812;53.540;9.774;2023-02-04T10:31:27;103777.66;;;24.13;24.44
59951;BME280;45812;53.540;9.774;2023-02-04T10:34:08;103783.94;;;22.80;25.92
59951;BME280;45812;53.540;9.774;2023-02-04T10:36:34;103785.91;;;21.97;26.58
59951;BME280;45812;53.540;9.774;2023-02-04T10:39:09;103777.34;;;22.34;27.08
59951;BME280;45812;53.540;9.774;2023-02-04T10:41:36;103786.16;;;22.85;26.05
59951;BME280;45812;53.540;9.774;2023-02-04T10:44:08;103793.50;;;21.43;27.06
59951;BME280;45812;53.540;9.774;2023-02-04T10:46:34;103790.03;;;19.82;28.66
59951;BME280;45812;53.540;9.774;2023-02-04T10:49:03;103793.22;;;18.45;30.81
59951;BME280;45812;53.540;9.774;2023-02-04T10:51:28;103805.31;;;17.51;32.79
59951;BME280;45812;53.540;9.774;2023-02-04T10:53:54;103815.53;;;17.27;33.79
59951;BME280;45812;53.540;9.774;2023-02-04T10:56:37;103805.59;;;16.97;33.85
59951;BME280;45812;53.540;9.774;2023-02-04T10:59:03;103808.81;;;16.59;34.54
59951;BME280;45812;53.540;9.774;2023-02-04T11:01:28;103807.22;;;16.24;34.66
59951;BME280;45812;53.540;9.774;2023-02-04T11:03:55;103813.91;;;15.75;35.53
59951;BME280;45812;53.540;9.774;2023-02-04T11:06:22;103811.03;;;15.21;35.81
59951;BME280;45812;53.540;9.774;2023-02-04T11:08:48;103803.41;;;15.61;35.74
59951;BME280;45812;53.540;9.774;2023-02-04T11:11:18;103805.75;;;15.66;35.91
59951;BME280;45812;53.540;9.774;2023-02-04T11:18:51;103806.97;;;15.04;36.85
59951;BME280;45812;53.540;9.774;2023-02-04T11:23:48;103804.34;;;15.27;36.82
59951;BME280;45812;53.540;9.774;2023-02-04T11:26:19;103804.91;;;14.97;36.97
59951;BME280;45812;53.540;9.774;2023-02-04T11:29:09;103805.38;;;14.91;37.72
59951;BME280;45812;53.540;9.774;2023-02-04T11:39:38;103808.25;;;13.92;38.93
59951;BME280;45812;53.540;9.774;2023-02-04T11:44:41;103808.66;;;13.49;39.11
59951;BME280;45812;53.540;9.774;2023-02-04T11:47:07;103808.34;;;13.54;39.69
59951;BME280;45812;53.540;9.774;2023-02-04T11:49:35;103820.66;;;13.31;40.43
59951;BME280;45812;53.540;9.774;2023-02-04T11:52:12;103811.78;;;13.43;40.28
59951;BME280;45812;53.540;9.774;2023-02-04T11:54:38;103816.59;;;13.38;40.16
59951;BME280;45812;53.540;9.774;2023-02-04T11:57:03;103819.72;;;13.45;39.11
59951;BME280;45812;53.540;9.774;2023-02-04T11:59:29;103821.75;;;13.28;39.78
59951;BME280;45812;53.540;9.774;2023-02-04T12:02:15;103822.38;;;13.32;40.14
59951;BME280;45812;53.540;9.774;2023-02-04T12:05:08;103818.41;;;13.25;39.97
59951;BME280;45812;53.540;9.774;2023-02-04T12:07:34;103825.69;;;13.23;40.35
59951;BME280;45812;53.540;9.774;2023-02-04T12:12:52;103832.63;;;14.73;37.38
59951;BME280;45812;53.540;9.774;2023-02-04T12:15:22;103832.53;;;17.79;32.24
59951;BME280;45812;53.540;9.774;2023-02-04T12:18:04;103828.63;;;20.83;28.31
59951;BME280;45812;53.540;9.774;2023-02-04T12:20:31;103823.16;;;22.78;26.53
59951;BME280;45812;53.540;9.774;2023-02-04T12:22:56;103832.78;;;24.15;24.39
59951;BME280;45812;53.540;9.774;2023-02-04T12:25:22;103826.31;;;25.52;22.70
59951;BME280;45812;53.540;9.774;2023-02-04T12:27:48;103814.88;;;26.72;21.25
59951;BME280;45812;53.540;9.774;2023-02-04T12:30:14;103815.66;;;26.94;20.92
59951;BME280;45812;53.540;9.774;2023-02-04T12:32:39;103815.47;;;27.17;20.25
59951;BME280;45812;53.540;9.774;2023-02-04T12:35:05;103824.28;;;25.69;21.39
59951;BME280;45812;53.540;9.774;2023-02-04T12:37:30;103818.88;;;23.16;24.46
59951;BME280;45812;53.540;9.774;2023-02-04T12:39:56;103820.72;;;23.23;24.20
59951;BME280;45812;53.540;9.774;2023-02-04T12:42:21;103827.06;;;22.83;24.71
59951;BME280;45812;53.540;9.774;2023-02-04T12:44:46;103827.34;;;22.15;25.18
59951;BME280;45812;53.540;9.774;2023-02-04T12:47:11;103831.94;;;22.23;25.22
59951;BME280;45812;53.540;9.774;2023-02-04T12:49:36;103838.78;;;21.07;26.12
59951;BME280;45812;53.540;9.774;2023-02-04T12:52:03;103835.13;;;19.91;27.09
59951;BME280;45812;53.540;9.774;2023-02-04T12:54:28;103830.84;;;19.05;28.92
59951;BME280;45812;53.540;9.774;2023-02-04T12:56:54;103832.53;;;18.58;29.79
59951;BME280;45812;53.540;9.774;2023-02-04T12:59:23;103830.84;;;19.05;29.23
59951;BME280;45812;53.540;9.774;2023-02-04T13:01:48;103834.56;;;18.65;29.55
59951;BME280;45812;53.540;9.774;2023-02-04T13:04:13;103840.16;;;18.14;30.24
59951;BME280;45812;53.540;9.774;2023-02-04T13:06:38;103842.50;;;17.58;31.10
59951;BME280;45812;53.540;9.774;2023-02-04T13:09:04;103843.38;;;17.89;31.02